createdAt,value
2019-03-15T00:02:26.162Z,98941.33
2019-03-15T00:04:56.887Z,98947.93
2019-03-15T00:07:27.652Z,98954.92
2019-03-15T00:09:58.593Z,98952.45
2019-03-15T00:12:29.361Z,98954.09
2019-03-15T00:15:00.953Z,98948.95
2019-03-15T00:17:31.679Z,98953.38
2019-03-15T00:20:02.638Z,98948.53
2019-03-15T00:22:33.526Z,98941.95
2019-03-15T00:25:04.682Z,98946.28
2019-03-15T00:27:35.474Z,98942.47
2019-03-15T00:30:07.518Z,98942.66
2019-03-15T00:32:38.334Z,98949.25
2019-03-15T00:35:09.680Z,98947.41
2019-03-15T00:37:40.687Z,98945.55
2019-03-15T00:40:13.819Z,98944.22
2019-03-15T00:42:44.516Z,98952.27
2019-03-15T00:45:15.405Z,98960.09
2019-03-15T00:47:46.286Z,98968.12
2019-03-15T00:50:17.179Z,98973.70
2019-03-15T00:52:47.995Z,98981.33
2019-03-15T00:55:19.740Z,98980.91
2019-03-15T00:57:50.558Z,98975.97
2019-03-15T01:00:21.510Z,98977.31
2019-03-15T01:02:52.158Z,98975.44
2019-03-15T01:05:22.915Z,98967.09
2019-03-15T01:07:53.831Z,98969.16
2019-03-15T01:10:24.572Z,98961.62
2019-03-15T01:12:55.476Z,98961.13
2019-03-15T01:15:26.359Z,98960.52
2019-03-15T01:17:57.147Z,98953.48
2019-03-15T01:20:27.903Z,98947.83
2019-03-15T01:22:58.614Z,98945.13
2019-03-15T01:25:29.442Z,98942.98
2019-03-15T01:28:00.738Z,98947.59
2019-03-15T01:30:31.631Z,98947.81
2019-03-15T01:33:02.362Z,98943.99
2019-03-15T01:35:34.007Z,98955.13
2019-03-15T01:38:05.096Z,98944.83
2019-03-15T01:40:35.940Z,98946.28
2019-03-15T01:43:06.741Z,98944.10
2019-03-15T01:45:37.410Z,98951.33
2019-03-15T01:48:08.208Z,98950.91
2019-03-15T01:50:39.154Z,98950.91
2019-03-15T01:53:10.018Z,98948.86
2019-03-15T01:55:40.851Z,98958.75
2019-03-15T01:58:11.735Z,98957.70
2019-03-15T02:00:42.491Z,98959.06
2019-03-15T02:03:13.637Z,98967.30
2019-03-15T02:05:44.728Z,98971.44
2019-03-15T02:08:15.538Z,98969.27
2019-03-15T02:10:46.422Z,98963.70
2019-03-15T02:13:17.180Z,98953.89
2019-03-15T02:15:47.855Z,98944.01
2019-03-15T02:18:18.900Z,98939.47
2019-03-15T02:20:49.785Z,98937.93
2019-03-15T02:23:20.659Z,98932.45
2019-03-15T02:25:51.541Z,98927.23
2019-03-15T02:28:22.302Z,98925.66
2019-03-15T02:30:53.482Z,98931.97
2019-03-15T02:33:24.318Z,98935.34
2019-03-15T02:35:55.057Z,98932.78
2019-03-15T02:38:27.074Z,98927.43
2019-03-15T02:40:58.064Z,98926.70
2019-03-15T02:43:28.858Z,98920.94
2019-03-15T02:45:59.634Z,98927.43
2019-03-15T02:48:30.458Z,98931.53
2019-03-15T02:51:01.332Z,98929.89
2019-03-15T02:53:32.130Z,98931.53
2019-03-15T02:56:03.068Z,98937.94
2019-03-15T02:58:34.014Z,98935.47
2019-03-15T03:01:04.912Z,98928.14
2019-03-15T03:03:35.979Z,98928.03
2019-03-15T03:06:06.718Z,98937.62
2019-03-15T03:08:37.595Z,98939.88
2019-03-15T03:11:08.710Z,98936.80
2019-03-15T03:13:39.517Z,98942.37
2019-03-15T03:16:10.387Z,98947.31
2019-03-15T03:18:41.173Z,98940.41
2019-03-15T03:21:12.063Z,98946.88
2019-03-15T03:23:42.987Z,98935.44
2019-03-15T03:26:13.829Z,98936.58
2019-03-15T03:28:44.717Z,98939.77
2019-03-15T03:31:16.233Z,98939.88
2019-03-15T03:33:48.249Z,98942.42
2019-03-15T03:36:19.061Z,98948.52
2019-03-15T03:38:49.745Z,98950.88
2019-03-15T03:41:20.475Z,98946.03
2019-03-15T03:43:51.722Z,98956.00
2019-03-15T03:46:22.352Z,98950.63
2019-03-15T03:48:53.258Z,98953.42
2019-03-15T03:51:24.079Z,98942.88
2019-03-15T03:53:54.758Z,98943.50
2019-03-15T03:56:25.663Z,98947.73
2019-03-15T03:58:56.744Z,98945.97
2019-03-15T04:01:27.552Z,98951.55
2019-03-15T04:03:58.363Z,98936.17
2019-03-15T04:06:29.152Z,98935.56
2019-03-15T04:09:00.146Z,98928.45
2019-03-15T04:11:31.128Z,98925.77
2019-03-15T04:14:02.223Z,98921.53
2019-03-15T04:16:34.016Z,98923.38
2019-03-15T04:19:04.910Z,98922.88
2019-03-15T04:21:35.698Z,98916.39
2019-03-15T04:24:06.650Z,98910.52
2019-03-15T04:26:37.542Z,98918.96
2019-03-15T04:29:08.420Z,98918.31
2019-03-15T04:31:39.194Z,98922.22
2019-03-15T04:34:09.982Z,98916.13
2019-03-15T04:36:41.362Z,98920.23
2019-03-15T04:39:13.951Z,98920.33
2019-03-15T04:41:44.654Z,98919.98
2019-03-15T04:44:15.449Z,98922.28
2019-03-15T04:46:46.418Z,98916.07
2019-03-15T04:49:17.150Z,98920.48
2019-03-15T04:51:48.226Z,98923.97
2019-03-15T04:54:18.925Z,98918.13
2019-03-15T04:56:49.763Z,98913.78
2019-03-15T04:59:23.783Z,98911.03
2019-03-15T05:01:52.839Z,98908.01
2019-03-15T05:04:23.678Z,98910.80
2019-03-15T05:06:54.450Z,98905.44
2019-03-15T05:09:25.366Z,98910.47
2019-03-15T05:11:56.082Z,98906.78
2019-03-15T05:14:26.852Z,98913.17
2019-03-15T05:16:57.689Z,98916.47
2019-03-15T05:19:28.554Z,98916.35
2019-03-15T05:21:59.393Z,98915.52
2019-03-15T05:24:30.096Z,98919.47
2019-03-15T05:27:01.077Z,98923.67
2019-03-15T05:29:32.754Z,98920.04
2019-03-15T05:32:03.818Z,98919.65
2019-03-15T05:34:34.525Z,98915.90
2019-03-15T05:37:05.306Z,98919.66
2019-03-15T05:39:36.236Z,98922.48
2019-03-15T05:42:08.390Z,98909.87
2019-03-15T05:44:39.054Z,98913.38
2019-03-15T05:47:09.704Z,98909.46
2019-03-15T05:49:40.497Z,98910.19
2019-03-15T05:52:11.578Z,98907.11
2019-03-15T05:54:42.349Z,98903.72
2019-03-15T05:57:13.121Z,98900.30
2019-03-15T05:59:43.924Z,98896.50
2019-03-15T06:02:14.554Z,98896.27
2019-03-15T06:04:45.653Z,98901.53
2019-03-15T06:07:16.558Z,98896.05
2019-03-15T06:09:47.431Z,98898.45
2019-03-15T06:12:19.299Z,98892.12
2019-03-15T06:14:50.194Z,98889.89
2019-03-15T06:17:20.897Z,98893.40
2019-03-15T06:19:51.683Z,98892.30
2019-03-15T06:22:22.358Z,98889.20
2019-03-15T06:24:53.139Z,98891.73
2019-03-15T06:27:23.863Z,98884.41
2019-03-15T06:29:54.534Z,98889.78
2019-03-15T06:32:25.381Z,98898.89
2019-03-15T06:34:56.264Z,98899.41
2019-03-15T06:37:27.102Z,98899.50
2019-03-15T06:39:57.853Z,98892.47
2019-03-15T06:42:28.770Z,98893.08
2019-03-15T06:44:59.391Z,98897.65
2019-03-15T06:47:30.371Z,98891.13
2019-03-15T06:50:01.285Z,98890.55
2019-03-15T06:52:32.058Z,98887.09
2019-03-15T06:55:05.309Z,98885.02
2019-03-15T06:57:35.470Z,98884.41
2019-03-15T07:00:06.427Z,98880.23
2019-03-15T07:02:37.171Z,98876.84
2019-03-15T07:05:11.678Z,98878.19
2019-03-15T07:07:40.926Z,98882.14
2019-03-15T07:10:12.181Z,98884.88
2019-03-15T07:12:43.074Z,98888.68
2019-03-15T07:15:14.166Z,98884.56
2019-03-15T07:17:44.992Z,98888.55
2019-03-15T07:20:17.057Z,98878.94
2019-03-15T07:22:47.856Z,98873.78
2019-03-15T07:25:18.529Z,98874.63
2019-03-15T07:27:49.370Z,98871.94
2019-03-15T07:30:20.200Z,98878.52
2019-03-15T07:32:50.970Z,98888.18
2019-03-15T07:35:21.738Z,98887.31
2019-03-15T07:37:52.404Z,98886.87
2019-03-15T07:40:23.135Z,98887.78
2019-03-15T07:42:53.879Z,98882.83
2019-03-15T07:45:25.007Z,98884.98
2019-03-15T07:47:55.712Z,98886.06
2019-03-15T07:50:26.414Z,98889.96
2019-03-15T07:52:57.110Z,98889.83
2019-03-15T07:55:27.779Z,98887.87
2019-03-15T07:57:58.753Z,98879.22
2019-03-15T08:00:29.620Z,98881.97
2019-03-15T08:03:00.245Z,98882.05
2019-03-15T08:05:31.089Z,98884.47
2019-03-15T08:08:01.882Z,98884.89
2019-03-15T08:10:32.556Z,98881.33
2019-03-15T08:13:03.364Z,98867.59
2019-03-15T08:15:34.158Z,98873.94
2019-03-15T08:18:05.062Z,98882.75
2019-03-15T08:20:36.223Z,98875.70
2019-03-15T08:23:08.577Z,98882.30
2019-03-15T08:25:39.611Z,98886.35
2019-03-15T08:28:10.326Z,98886.20
2019-03-15T08:30:41.009Z,98889.59
2019-03-15T08:33:12.099Z,98898.02
2019-03-15T08:35:42.926Z,98901.08
2019-03-15T08:38:14.753Z,98898.67
2019-03-15T08:40:45.424Z,98894.77
2019-03-15T08:43:16.257Z,98904.88
2019-03-15T08:45:47.127Z,98906.59
2019-03-15T08:48:17.654Z,98912.72
2019-03-15T08:50:48.435Z,98911.73
2019-03-15T08:53:19.222Z,98920.94
2019-03-15T08:55:49.978Z,98918.09
2019-03-15T08:58:22.387Z,98911.13
2019-03-15T09:00:53.566Z,98915.16
2019-03-15T09:03:28.145Z,98912.40
2019-03-15T09:05:56.732Z,98919.86
2019-03-15T09:08:27.528Z,98932.58
2019-03-15T09:10:59.304Z,98936.16
2019-03-15T09:13:30.115Z,98934.66
2019-03-15T09:16:00.887Z,98930.92
2019-03-15T09:18:31.829Z,98952.02
2019-03-15T09:21:02.587Z,98946.63
2019-03-15T09:23:33.267Z,98957.66
2019-03-15T09:26:04.160Z,98951.75
2019-03-15T09:28:35.163Z,98959.97
2019-03-15T09:31:07.654Z,98963.02
2019-03-15T09:33:38.656Z,98959.55
2019-03-15T09:36:09.667Z,98948.77
2019-03-15T09:38:40.424Z,98943.97
2019-03-15T09:41:11.207Z,98943.21
2019-03-15T09:43:45.226Z,98937.94
2019-03-15T09:46:14.419Z,98942.73
2019-03-15T09:48:45.173Z,98945.23
2019-03-15T09:51:15.892Z,98954.87
2019-03-15T09:53:46.635Z,98941.15
2019-03-15T09:56:17.411Z,98950.87
2019-03-15T09:58:48.251Z,98957.69
2019-03-15T10:01:34.441Z,98953.92
2019-03-15T10:03:51.698Z,98967.28
2019-03-15T10:06:22.495Z,98974.18
2019-03-15T10:08:53.443Z,98967.00
2019-03-15T10:11:24.066Z,98973.14
2019-03-15T10:13:54.887Z,98964.23
2019-03-15T10:16:25.466Z,98971.05
2019-03-15T10:18:56.436Z,98976.12
2019-03-15T10:21:27.095Z,98992.38
2019-03-15T10:23:57.872Z,98992.27
2019-03-15T10:26:28.875Z,98990.76
2019-03-15T10:28:59.847Z,98988.26
2019-03-15T10:31:30.758Z,98985.80
2019-03-15T10:34:01.556Z,98989.96
2019-03-15T10:36:34.633Z,98985.28
2019-03-15T10:39:05.560Z,98997.38
2019-03-15T10:41:38.151Z,98986.51
2019-03-15T10:44:08.893Z,98983.17
2019-03-15T10:46:40.646Z,99008.80
2019-03-15T10:49:11.389Z,99014.72
2019-03-15T10:51:42.059Z,99002.66
2019-03-15T10:54:13.011Z,99006.98
2019-03-15T10:56:43.823Z,99012.09
2019-03-15T10:59:14.716Z,99014.91
2019-03-15T11:01:45.601Z,99004.95
2019-03-15T11:04:16.299Z,99025.92
2019-03-15T11:06:47.078Z,99028.11
2019-03-15T11:09:18.103Z,99016.84
2019-03-15T11:11:48.710Z,99029.88
2019-03-15T11:14:19.636Z,99029.88
2019-03-15T11:16:50.281Z,99035.05
2019-03-15T11:19:21.055Z,99027.70
2019-03-15T11:21:51.896Z,99030.52
2019-03-15T11:24:22.789Z,99038.97
2019-03-15T11:26:54.589Z,99044.25
2019-03-15T11:29:25.280Z,99039.38
2019-03-15T11:31:56.052Z,99045.12
2019-03-15T11:34:26.850Z,99047.30
2019-03-15T11:36:58.672Z,99049.34
2019-03-15T11:39:29.472Z,99038.02
2019-03-15T11:42:00.326Z,99043.78
2019-03-15T11:44:31.112Z,99038.09
2019-03-15T11:47:02.053Z,99050.77
2019-03-15T11:49:32.887Z,99050.41
2019-03-15T11:52:03.671Z,99049.81
2019-03-15T11:54:34.497Z,99052.94
2019-03-15T11:57:05.363Z,99053.06
2019-03-15T11:59:36.570Z,99058.13
2019-03-15T12:02:10.559Z,99050.14
2019-03-15T12:04:39.751Z,99051.68
2019-03-15T12:07:10.687Z,99055.56
2019-03-15T12:09:42.449Z,99052.73
2019-03-15T12:12:13.220Z,99066.16
2019-03-15T12:14:44.019Z,99067.30
2019-03-15T12:17:14.791Z,99070.39
2019-03-15T12:19:45.485Z,99074.34
2019-03-15T12:22:16.202Z,99079.09
2019-03-15T12:24:46.986Z,99077.39
2019-03-15T12:27:18.651Z,99080.75
2019-03-15T12:29:49.463Z,99085.60
2019-03-15T12:32:23.519Z,99088.55
2019-03-15T12:34:52.683Z,99085.80
2019-03-15T12:37:23.623Z,99090.81
2019-03-15T12:39:54.309Z,99087.84
2019-03-15T12:42:25.194Z,99087.84
2019-03-15T12:44:56.120Z,99086.32
2019-03-15T12:47:26.892Z,99088.09
2019-03-15T12:49:57.951Z,99087.50
2019-03-15T12:52:28.639Z,99083.45
2019-03-15T12:54:59.516Z,99077.57
2019-03-15T12:57:30.455Z,99091.24
2019-03-15T13:00:01.251Z,99089.78
2019-03-15T13:02:32.189Z,99089.02
2019-03-15T13:05:02.887Z,99089.30
2019-03-15T13:07:33.575Z,99090.80
2019-03-15T13:10:04.625Z,99097.99
2019-03-15T13:12:36.546Z,99086.91
2019-03-15T13:15:07.707Z,99091.41
2019-03-15T13:17:38.630Z,99095.19
2019-03-15T13:20:10.273Z,99099.75
2019-03-15T13:22:42.287Z,99099.23
2019-03-15T13:25:13.067Z,99109.44
2019-03-15T13:27:43.853Z,99121.00
2019-03-15T13:30:15.160Z,99129.41
2019-03-15T13:32:45.962Z,99137.96
2019-03-15T13:35:16.757Z,99138.55
2019-03-15T13:37:47.651Z,99143.48
2019-03-15T13:40:18.601Z,99143.72
2019-03-15T13:42:49.464Z,99146.38
2019-03-15T13:45:20.170Z,99135.81
2019-03-15T13:47:50.971Z,99146.06
2019-03-15T13:50:21.784Z,99149.36
2019-03-15T13:52:53.596Z,99153.89
2019-03-15T13:55:24.407Z,99150.47
2019-03-15T13:57:55.352Z,99152.37
2019-03-15T14:00:26.206Z,99151.30
2019-03-15T14:02:58.135Z,99151.78
2019-03-15T14:05:28.935Z,99155.40
2019-03-15T14:08:11.136Z,99148.05
2019-03-15T14:10:32.208Z,99141.66
2019-03-15T14:13:02.953Z,99140.70
2019-03-15T14:15:33.952Z,99141.61
2019-03-15T14:18:04.826Z,99134.74
2019-03-15T14:20:35.599Z,99133.16
2019-03-15T14:23:06.403Z,99132.80
2019-03-15T14:25:37.501Z,99150.59
2019-03-15T14:28:09.401Z,99149.16
2019-03-15T14:30:41.851Z,99144.00
2019-03-15T14:33:12.693Z,99143.01
2019-03-15T14:35:43.477Z,99136.25
2019-03-15T14:38:14.445Z,99140.37
2019-03-15T14:40:45.249Z,99139.08
2019-03-15T14:43:16.243Z,99145.63
2019-03-15T14:45:47.080Z,99143.50
2019-03-15T14:48:17.863Z,99139.50
2019-03-15T14:50:48.653Z,99137.47
2019-03-15T14:53:19.436Z,99136.47
2019-03-15T14:55:50.278Z,99134.53
2019-03-15T14:58:21.208Z,99145.92
2019-03-15T15:00:52.134Z,99134.57
2019-03-15T15:03:22.887Z,99146.20
2019-03-15T15:05:53.855Z,99140.12
2019-03-15T15:08:24.557Z,99141.47
2019-03-15T15:10:55.296Z,99137.86
2019-03-15T15:13:26.029Z,99139.81
2019-03-15T15:15:56.952Z,99140.47
2019-03-15T15:18:27.706Z,99152.44
2019-03-15T15:20:58.589Z,99154.63
2019-03-15T15:23:29.439Z,99147.31
2019-03-15T15:26:00.343Z,99151.80
2019-03-15T15:28:31.111Z,99150.92
2019-03-15T15:31:01.846Z,99164.71
2019-03-15T15:33:32.513Z,99158.12
2019-03-15T15:36:03.311Z,99157.33
2019-03-15T15:38:33.996Z,99161.48
2019-03-15T15:41:05.331Z,99163.84
2019-03-15T15:43:36.210Z,99160.55
2019-03-15T15:46:07.068Z,99162.77
2019-03-15T15:48:37.675Z,99162.77
2019-03-15T15:51:08.471Z,99153.31
2019-03-15T15:53:39.163Z,99158.03
2019-03-15T15:56:10.149Z,99157.52
2019-03-15T15:58:40.967Z,99157.80
2019-03-15T16:01:11.743Z,99167.41
2019-03-15T16:03:42.540Z,99171.03
2019-03-15T16:06:13.316Z,99168.65
2019-03-15T16:08:44.106Z,99166.02
2019-03-15T16:11:15.063Z,99164.88
2019-03-15T16:13:45.856Z,99171.94
2019-03-15T16:16:16.831Z,99172.70
2019-03-15T16:18:47.893Z,99164.59
2019-03-15T16:21:18.952Z,99162.73
2019-03-15T16:23:49.713Z,99164.19
2019-03-15T16:26:20.600Z,99167.30
2019-03-15T16:28:51.416Z,99176.08
2019-03-15T16:31:22.262Z,99168.81
2019-03-15T16:33:53.062Z,99179.45
2019-03-15T16:36:23.828Z,99181.32
2019-03-15T16:38:54.775Z,99175.09
2019-03-15T16:41:25.604Z,99171.42
2019-03-15T16:43:56.475Z,99171.52
2019-03-15T16:46:27.273Z,99166.94
2019-03-15T16:48:58.116Z,99182.31
2019-03-15T16:51:28.927Z,99182.55
2019-03-15T16:53:59.697Z,99165.91
2019-03-15T16:56:30.621Z,99180.38
2019-03-15T16:59:01.423Z,99183.71
2019-03-15T17:01:32.293Z,99188.04
2019-03-15T17:04:03.127Z,99199.27
2019-03-15T17:06:33.912Z,99200.38
2019-03-15T17:09:05.775Z,99191.22
2019-03-15T17:11:36.655Z,99198.44
2019-03-15T17:14:07.533Z,99205.19
2019-03-15T17:16:38.203Z,99200.47
2019-03-15T17:19:08.997Z,99206.70
2019-03-15T17:21:39.795Z,99208.28
2019-03-15T17:24:10.558Z,99217.86
2019-03-15T17:26:43.664Z,99233.11
2019-03-15T17:29:15.451Z,99235.05
2019-03-15T17:31:46.326Z,99232.88
2019-03-15T17:34:17.150Z,99238.97
2019-03-15T17:36:48.022Z,99234.77
2019-03-15T17:39:18.824Z,99237.39
2019-03-15T17:41:49.565Z,99242.56
2019-03-15T17:44:20.395Z,99238.95
2019-03-15T17:46:51.446Z,99242.32
2019-03-15T17:49:23.087Z,99253.08
2019-03-15T17:51:53.947Z,99253.52
2019-03-15T17:54:24.746Z,99259.53
2019-03-15T17:56:55.499Z,99262.08
2019-03-15T17:59:26.166Z,99261.33
2019-03-15T18:01:57.085Z,99270.56
2019-03-15T18:04:27.909Z,99269.13
2019-03-15T18:06:58.607Z,99269.45
2019-03-15T18:09:29.479Z,99272.77
2019-03-15T18:12:00.443Z,99263.00
2019-03-15T18:14:31.168Z,99278.36
2019-03-15T18:17:01.887Z,99287.53
2019-03-15T18:19:32.644Z,99296.89
2019-03-15T18:22:03.458Z,99288.19
2019-03-15T18:24:34.419Z,99286.70
2019-03-15T18:27:05.299Z,99285.73
2019-03-15T18:29:36.175Z,99278.92
2019-03-15T18:32:06.901Z,99280.42
2019-03-15T18:34:37.860Z,99287.17
2019-03-15T18:37:09.582Z,99284.90
2019-03-15T18:39:40.523Z,99280.85
2019-03-15T18:42:11.232Z,99286.42
2019-03-15T18:44:42.146Z,99280.28
2019-03-15T18:47:12.940Z,99281.31
2019-03-15T18:49:43.702Z,99284.47
2019-03-15T18:52:14.403Z,99284.47
2019-03-15T18:54:45.070Z,99289.50
2019-03-15T18:57:16.057Z,99294.49
2019-03-15T18:59:46.781Z,99294.58
2019-03-15T19:02:17.455Z,99292.20
2019-03-15T19:04:48.181Z,99305.83
2019-03-15T19:07:19.966Z,99306.44
2019-03-15T19:09:50.640Z,99297.96
2019-03-15T19:12:21.540Z,99299.31
2019-03-15T19:14:52.210Z,99304.25
2019-03-15T19:17:22.868Z,99309.59
2019-03-15T19:19:53.697Z,99304.48
2019-03-15T19:22:24.875Z,99311.31
2019-03-15T19:24:55.657Z,99314.16
2019-03-15T19:27:26.583Z,99303.96
2019-03-15T19:29:57.535Z,99320.06
2019-03-15T19:32:28.204Z,99314.02
2019-03-15T19:34:59.104Z,99325.61
2019-03-15T19:37:29.876Z,99318.95
2019-03-15T19:40:01.560Z,99331.84
2019-03-15T19:42:32.526Z,99336.63
2019-03-15T19:45:03.983Z,99334.77
2019-03-15T19:47:34.647Z,99342.86
2019-03-15T19:50:06.673Z,99342.41
2019-03-15T19:52:37.794Z,99344.07
2019-03-15T19:55:09.313Z,99345.05
2019-03-15T19:57:40.237Z,99351.70
2019-03-15T20:00:13.122Z,99355.61
2019-03-15T20:02:44.035Z,99363.62
2019-03-15T20:05:14.942Z,99365.39
2019-03-15T20:07:46.095Z,99359.08
2019-03-15T20:10:17.435Z,99376.33
2019-03-15T20:12:48.123Z,99371.07
2019-03-15T20:15:19.113Z,99386.06
2019-03-15T20:17:50.109Z,99381.12
2019-03-15T20:20:21.299Z,99392.50
2019-03-15T20:22:52.776Z,99387.24
2019-03-15T20:25:23.581Z,99394.13
2019-03-15T20:27:54.383Z,99397.88
2019-03-15T20:30:27.249Z,99388.36
2019-03-15T20:32:58.205Z,99400.06
2019-03-15T20:35:28.940Z,99401.92
2019-03-15T20:37:59.716Z,99407.19
2019-03-15T20:40:30.510Z,99403.94
2019-03-15T20:43:01.376Z,99404.55
2019-03-15T20:45:32.194Z,99405.67
2019-03-15T20:48:03.085Z,99405.98
2019-03-15T20:50:46.233Z,99399.85
2019-03-15T20:53:09.740Z,99404.37
2019-03-15T20:55:39.148Z,99399.25
2019-03-15T20:58:10.206Z,99399.17
2019-03-15T21:00:42.275Z,99393.11
2019-03-15T21:03:13.119Z,99403.06
2019-03-15T21:05:43.790Z,99406.83
2019-03-15T21:08:14.586Z,99405.25
2019-03-15T21:10:45.323Z,99406.83
2019-03-15T21:13:15.954Z,99415.43
2019-03-15T21:15:47.674Z,99407.72
2019-03-15T21:18:18.379Z,99407.34
2019-03-15T21:20:49.106Z,99410.94
2019-03-15T21:23:19.870Z,99408.08
2019-03-15T21:25:50.752Z,99407.95
2019-03-15T21:28:21.501Z,99408.23
2019-03-15T21:30:52.369Z,99413.86
2019-03-15T21:33:23.263Z,99412.73
2019-03-15T21:35:53.939Z,99417.62
2019-03-15T21:38:24.638Z,99405.02
2019-03-15T21:40:55.984Z,99405.67
2019-03-15T21:43:26.843Z,99399.98
2019-03-15T21:45:57.672Z,99416.69
2019-03-15T21:48:28.647Z,99411.52
2019-03-15T21:50:59.455Z,99413.19
2019-03-15T21:53:30.406Z,99424.52
2019-03-15T21:56:01.330Z,99425.48
2019-03-15T21:58:32.091Z,99432.23
2019-03-15T22:01:03.060Z,99440.38
2019-03-15T22:03:33.810Z,99438.14
2019-03-15T22:06:04.722Z,99441.53
2019-03-15T22:08:35.409Z,99445.58
2019-03-15T22:11:20.143Z,99441.44
2019-03-15T22:13:39.093Z,99437.76
2019-03-15T22:16:10.042Z,99442.26
2019-03-15T22:18:40.667Z,99422.63
2019-03-15T22:21:11.433Z,99437.63
2019-03-15T22:23:42.294Z,99436.27
2019-03-15T22:26:12.996Z,99438.75
2019-03-15T22:28:43.854Z,99425.75
2019-03-15T22:31:16.849Z,99433.10
2019-03-15T22:33:47.466Z,99431.91
2019-03-15T22:36:18.580Z,99441.19
2019-03-15T22:38:49.800Z,99435.34
2019-03-15T22:41:20.592Z,99431.98
2019-03-15T22:43:51.451Z,99444.41
2019-03-15T22:46:22.249Z,99446.59
2019-03-15T22:48:52.986Z,99440.32
2019-03-15T22:51:23.910Z,99456.26
2019-03-15T22:53:55.659Z,99453.84
2019-03-15T22:56:26.691Z,99456.87
2019-03-15T22:58:57.427Z,99455.94
2019-03-15T23:01:30.498Z,99462.91
2019-03-15T23:04:00.967Z,99472.28
2019-03-15T23:06:31.743Z,99464.26
2019-03-15T23:09:02.478Z,99461.78
2019-03-15T23:11:34.643Z,99456.74
2019-03-15T23:14:06.523Z,99457.93
2019-03-15T23:16:37.337Z,99458.67
2019-03-15T23:19:08.056Z,99452.66
2019-03-15T23:21:38.674Z,99450.33
2019-03-15T23:24:09.520Z,99447.11
2019-03-15T23:26:40.280Z,99451.06
2019-03-15T23:29:12.669Z,99451.83
2019-03-15T23:31:44.174Z,99439.98
2019-03-15T23:34:16.135Z,99441.45
2019-03-15T23:36:46.879Z,99437.31
2019-03-15T23:39:17.606Z,99438.67
2019-03-15T23:41:48.363Z,99436.19
2019-03-15T23:44:19.203Z,99438.89
2019-03-15T23:46:49.982Z,99420.63
2019-03-15T23:49:20.787Z,99426.98
2019-03-15T23:51:51.642Z,99428.62
2019-03-15T23:54:22.403Z,99429.68
2019-03-15T23:56:53.184Z,99432.59
2019-03-15T23:59:23.975Z,99440.17
